sensor_id;sensor_type;location;lat;lon;timestamp;temperature;humidity
3778;DHT22;1904;50.076;8.660;2023-05-07T00:02:28;16.20;1.00
3778;DHT22;1904;50.076;8.660;2023-05-07T00:05:24;16.20;1.00
3778;DHT22;1904;50.076;8.660;2023-05-07T00:08:07;16.20;1.00
3778;DHT22;1904;50.076;8.660;2023-05-07T00:11:06;16.10;1.00
3778;DHT22;1904;50.076;8.660;2023-05-07T00:13:43;16.20;1.00
3778;DHT22;1904;50.076;8.660;2023-05-07T00:16:19;16.10;1.00
3778;DHT22;1904;50.076;8.660;2023-05-07T00:18:45;16.10;1.00
3778;DHT22;1904;50.076;8.660;2023-05-07T00:21:10;16.20;1.00
3778;DHT22;1904;50.076;8.660;2023-05-07T00:23:36;16.10;1.00
3778;DHT22;1904;50.076;8.660;2023-05-07T00:26:07;16.20;1.00
3778;DHT22;1904;50.076;8.660;2023-05-07T00:28:33;16.20;1.00
3778;DHT22;1904;50.076;8.660;2023-05-07T00:30:58;16.20;1.00
3778;DHT22;1904;50.076;8.660;2023-05-07T00:33:24;16.30;1.00
3778;DHT22;1904;50.076;8.660;2023-05-07T00:35:55;16.20;1.00
3778;DHT22;1904;50.076;8.660;2023-05-07T00:38:21;16.20;1.00
3778;DHT22;1904;50.076;8.660;2023-05-07T00:40:46;16.20;1.00
3778;DHT22;1904;50.076;8.660;2023-05-07T00:43:13;16.20;1.00
3778;DHT22;1904;50.076;8.660;2023-05-07T00:45:38;16.20;1.00
3778;DHT22;1904;50.076;8.660;2023-05-07T00:48:30;16.20;1.00
3778;DHT22;1904;50.076;8.660;2023-05-07T00:51:13;16.20;1.00
3778;DHT22;1904;50.076;8.660;2023-05-07T00:54:06;16.20;1.00
3778;DHT22;1904;50.076;8.660;2023-05-07T00:56:54;16.20;1.00
3778;DHT22;1904;50.076;8.660;2023-05-07T00:59:54;16.10;1.00
3778;DHT22;1904;50.076;8.660;2023-05-07T01:02:48;16.10;1.00
3778;DHT22;1904;50.076;8.660;2023-05-07T01:05:20;16.10;1.00
3778;DHT22;1904;50.076;8.660;2023-05-07T01:08:02;16.10;1.00
3778;DHT22;1904;50.076;8.660;2023-05-07T01:13:51;16.10;1.00
3778;DHT22;1904;50.076;8.660;2023-05-07T01:16:25;16.10;1.00
3778;DHT22;1904;50.076;8.660;2023-05-07T01:19:01;16.10;1.00
3778;DHT22;1904;50.076;8.660;2023-05-07T01:21:47;16.00;1.00
3778;DHT22;1904;50.076;8.660;2023-05-07T01:24:25;16.00;1.00
3778;DHT22;1904;50.076;8.660;2023-05-07T01:26:50;16.00;1.00
3778;DHT22;1904;50.076;8.660;2023-05-07T01:29:19;16.00;1.00
3778;DHT22;1904;50.076;8.660;2023-05-07T01:31:50;16.00;1.00
3778;DHT22;1904;50.076;8.660;2023-05-07T01:34:54;16.00;1.00
3778;DHT22;1904;50.076;8.660;2023-05-07T01:37:21;15.90;1.00
3778;DHT22;1904;50.076;8.660;2023-05-07T01:39:55;15.90;1.00
3778;DHT22;1904;50.076;8.660;2023-05-07T01:42:22;15.90;1.00
3778;DHT22;1904;50.076;8.660;2023-05-07T01:44:48;15.90;1.00
3778;DHT22;1904;50.076;8.660;2023-05-07T01:47:14;15.90;1.00
3778;DHT22;1904;50.076;8.660;2023-05-07T01:49:40;15.90;1.00
3778;DHT22;1904;50.076;8.660;2023-05-07T01:52:06;15.90;1.00
3778;DHT22;1904;50.076;8.660;2023-05-07T01:55:00;16.00;1.00
3778;DHT22;1904;50.076;8.660;2023-05-07T01:57:48;15.90;1.00
3778;DHT22;1904;50.076;8.660;2023-05-07T02:00:25;15.90;1.00
3778;DHT22;1904;50.076;8.660;2023-05-07T02:02:51;15.90;1.00
3778;DHT22;1904;50.076;8.660;2023-05-07T02:08:39;15.80;1.00
3778;DHT22;1904;50.076;8.660;2023-05-07T02:11:07;15.90;1.00
3778;DHT22;1904;50.076;8.660;2023-05-07T02:13:33;15.80;1.00
3778;DHT22;1904;50.076;8.660;2023-05-07T02:19:25;15.70;1.00
3778;DHT22;1904;50.076;8.660;2023-05-07T02:21:51;15.70;1.00
3778;DHT22;1904;50.076;8.660;2023-05-07T02:24:16;15.70;1.00
3778;DHT22;1904;50.076;8.660;2023-05-07T02:26:42;15.70;1.00
3778;DHT22;1904;50.076;8.660;2023-05-07T02:29:08;15.70;1.00
3778;DHT22;1904;50.076;8.660;2023-05-07T02:31:37;15.60;1.00
3778;DHT22;1904;50.076;8.660;2023-05-07T02:34:02;15.70;1.00
3778;DHT22;1904;50.076;8.660;2023-05-07T02:36:29;15.70;1.00
3778;DHT22;1904;50.076;8.660;2023-05-07T02:39:01;15.60;1.00
3778;DHT22;1904;50.076;8.660;2023-05-07T02:41:28;15.60;1.00
3778;DHT22;1904;50.076;8.660;2023-05-07T02:43:53;15.60;1.00
3778;DHT22;1904;50.076;8.660;2023-05-07T02:46:19;15.60;1.00
3778;DHT22;1904;50.076;8.660;2023-05-07T02:48:45;15.60;1.00
3778;DHT22;1904;50.076;8.660;2023-05-07T02:51:11;15.60;1.00
3778;DHT22;1904;50.076;8.660;2023-05-07T02:53:36;15.60;1.00
3778;DHT22;1904;50.076;8.660;2023-05-07T02:56:07;15.60;1.00
3778;DHT22;1904;50.076;8.660;2023-05-07T02:58:32;15.60;1.00
3778;DHT22;1904;50.076;8.660;2023-05-07T03:00:58;15.60;1.00
3778;DHT22;1904;50.076;8.660;2023-05-07T03:03:24;15.50;1.00
3778;DHT22;1904;50.076;8.660;2023-05-07T03:05:50;15.50;1.00
3778;DHT22;1904;50.076;8.660;2023-05-07T03:08:16;15.50;1.00
3778;DHT22;1904;50.076;8.660;2023-05-07T03:10:43;15.50;1.00
3778;DHT22;1904;50.076;8.660;2023-05-07T03:13:13;15.50;1.00
3778;DHT22;1904;50.076;8.660;2023-05-07T03:15:43;15.50;1.00
3778;DHT22;1904;50.076;8.660;2023-05-07T03:18:08;15.50;1.00
3778;DHT22;1904;50.076;8.660;2023-05-07T03:20:49;15.50;1.00
3778;DHT22;1904;50.076;8.660;2023-05-07T03:23:25;15.40;1.00
3778;DHT22;1904;50.076;8.660;2023-05-07T03:25:51;15.40;1.00
3778;DHT22;1904;50.076;8.660;2023-05-07T03:35:00;15.30;1.00
3778;DHT22;1904;50.076;8.660;2023-05-07T03:43:53;15.30;1.00
3778;DHT22;1904;50.076;8.660;2023-05-07T03:49:44;15.20;1.00
3778;DHT22;1904;50.076;8.660;2023-05-07T03:52:25;15.20;1.00
3778;DHT22;1904;50.076;8.660;2023-05-07T03:58:25;15.10;1.00
3778;DHT22;1904;50.076;8.660;2023-05-07T04:01:24;15.10;1.00
3778;DHT22;1904;50.076;8.660;2023-05-07T04:13:52;15.00;1.00
3778;DHT22;1904;50.076;8.660;2023-05-07T04:19:40;14.90;1.00
3778;DHT22;1904;50.076;8.660;2023-05-07T04:28:36;14.90;1.00
3778;DHT22;1904;50.076;8.660;2023-05-07T04:41:25;15.00;1.00
3778;DHT22;1904;50.076;8.660;2023-05-07T04:44:16;15.00;1.00
3778;DHT22;1904;50.076;8.660;2023-05-07T04:50:05;15.10;1.00
3778;DHT22;1904;50.076;8.660;2023-05-07T04:52:37;15.20;1.00
3778;DHT22;1904;50.076;8.660;2023-05-07T04:58:25;15.30;1.00
3778;DHT22;1904;50.076;8.660;2023-05-07T05:00:51;15.30;1.00
3778;DHT22;1904;50.076;8.660;2023-05-07T05:06:39;15.40;1.00
3778;DHT22;1904;50.076;8.660;2023-05-07T05:16:01;15.70;1.00
3778;DHT22;1904;50.076;8.660;2023-05-07T05:18:37;15.80;1.00
3778;DHT22;1904;50.076;8.660;2023-05-07T05:24:48;16.10;1.00
3778;DHT22;1904;50.076;8.660;2023-05-07T05:31:12;16.30;1.00
3778;DHT22;1904;50.076;8.660;2023-05-07T05:44:03;16.90;1.00
3778;DHT22;1904;50.076;8.660;2023-05-07T05:49:51;17.10;1.00
3778;DHT22;1904;50.076;8.660;2023-05-07T05:52:32;17.20;1.00
3778;DHT22;1904;50.076;8.660;2023-05-07T06:01:36;17.70;1.00
3778;DHT22;1904;50.076;8.660;2023-05-07T06:04:07;17.80;1.00
3778;DHT22;1904;50.076;8.660;2023-05-07T06:09:54;18.00;1.00
3778;DHT22;1904;50.076;8.660;2023-05-07T06:12:31;18.20;1.00
3778;DHT22;1904;50.076;8.660;2023-05-07T06:18:19;18.50;1.00
3778;DHT22;1904;50.076;8.660;2023-05-07T06:20:55;18.60;1.00
3778;DHT22;1904;50.076;8.660;2023-05-07T06:26:43;18.80;1.00
3778;DHT22;1904;50.076;8.660;2023-05-07T06:36:01;19.20;1.00
3778;DHT22;1904;50.076;8.660;2023-05-07T06:58:38;19.50;1.00
3778;DHT22;1904;50.076;8.660;2023-05-07T07:04:25;19.40;1.00
3778;DHT22;1904;50.076;8.660;2023-05-07T07:13:35;19.70;1.00
3778;DHT22;1904;50.076;8.660;2023-05-07T07:19:23;20.10;1.00
3778;DHT22;1904;50.076;8.660;2023-05-07T07:31:56;20.50;1.00
3778;DHT22;1904;50.076;8.660;2023-05-07T07:41:30;20.90;1.00
3778;DHT22;1904;50.076;8.660;2023-05-07T07:50:30;21.80;1.00
3778;DHT22;1904;50.076;8.660;2023-05-07T07:53:19;21.70;1.00
3778;DHT22;1904;50.076;8.660;2023-05-07T07:55:55;21.90;1.00
3778;DHT22;1904;50.076;8.660;2023-05-07T08:05:04;21.90;1.00
3778;DHT22;1904;50.076;8.660;2023-05-07T08:07:49;22.10;1.00
3778;DHT22;1904;50.076;8.660;2023-05-07T08:26:44;22.70;1.00
3778;DHT22;1904;50.076;8.660;2023-05-07T08:29:25;22.80;1.00
3778;DHT22;1904;50.076;8.660;2023-05-07T08:31:51;23.00;1.00
3778;DHT22;1904;50.076;8.660;2023-05-07T08:34:43;22.90;1.00
3778;DHT22;1904;50.076;8.660;2023-05-07T08:40:36;22.80;1.00
3778;DHT22;1904;50.076;8.660;2023-05-07T08:43:03;22.80;1.00
3778;DHT22;1904;50.076;8.660;2023-05-07T08:45:33;22.60;1.00
3778;DHT22;1904;50.076;8.660;2023-05-07T08:48:02;22.70;1.00
3778;DHT22;1904;50.076;8.660;2023-05-07T08:50:29;22.90;1.00
3778;DHT22;1904;50.076;8.660;2023-05-07T08:52:55;23.20;1.00
3778;DHT22;1904;50.076;8.660;2023-05-07T08:55:22;23.30;1.00
3778;DHT22;1904;50.076;8.660;2023-05-07T08:57:49;23.30;1.00
3778;DHT22;1904;50.076;8.660;2023-05-07T09:00:15;23.60;1.00
3778;DHT22;1904;50.076;8.660;2023-05-07T09:02:41;23.60;1.00
3778;DHT22;1904;50.076;8.660;2023-05-07T09:05:08;23.90;1.00
3778;DHT22;1904;50.076;8.660;2023-05-07T09:07:33;24.00;1.00
3778;DHT22;1904;50.076;8.660;2023-05-07T09:10:03;24.20;1.00
3778;DHT22;1904;50.076;8.660;2023-05-07T09:12:29;24.40;1.00
3778;DHT22;1904;50.076;8.660;2023-05-07T09:14:55;24.50;1.00
3778;DHT22;1904;50.076;8.660;2023-05-07T09:17:21;24.40;1.00
3778;DHT22;1904;50.076;8.660;2023-05-07T09:19:47;24.70;1.00
3778;DHT22;1904;50.076;8.660;2023-05-07T09:22:13;24.90;1.00
3778;DHT22;1904;50.076;8.660;2023-05-07T09:24:55;24.90;1.00
3778;DHT22;1904;50.076;8.660;2023-05-07T09:27:43;24.90;1.00
3778;DHT22;1904;50.076;8.660;2023-05-07T09:30:09;25.00;1.00
3778;DHT22;1904;50.076;8.660;2023-05-07T09:32:43;25.20;1.00
3778;DHT22;1904;50.076;8.660;2023-05-07T09:35:25;25.40;1.00
3778;DHT22;1904;50.076;8.660;2023-05-07T09:38:01;25.60;1.00
3778;DHT22;1904;50.076;8.660;2023-05-07T09:47:04;25.40;1.00
3778;DHT22;1904;50.076;8.660;2023-05-07T09:49:34;25.50;1.00
3778;DHT22;1904;50.076;8.660;2023-05-07T09:52:13;25.50;1.00
3778;DHT22;1904;50.076;8.660;2023-05-07T09:54:43;25.50;1.00
3778;DHT22;1904;50.076;8.660;2023-05-07T09:57:11;25.50;1.00
3778;DHT22;1904;50.076;8.660;2023-05-07T09:59:43;25.50;1.00
3778;DHT22;1904;50.076;8.660;2023-05-07T10:02:11;25.60;1.00
3778;DHT22;1904;50.076;8.660;2023-05-07T10:04:39;25.70;1.00
3778;DHT22;1904;50.076;8.660;2023-05-07T10:07:07;25.60;1.00
3778;DHT22;1904;50.076;8.660;2023-05-07T10:09:37;25.70;1.00
3778;DHT22;1904;50.076;8.660;2023-05-07T10:12:05;25.60;1.00
3778;DHT22;1904;50.076;8.660;2023-05-07T10:14:32;25.60;1.00
3778;DHT22;1904;50.076;8.660;2023-05-07T10:16:57;25.60;1.00
3778;DHT22;1904;50.076;8.660;2023-05-07T10:19:24;25.60;1.00
3778;DHT22;1904;50.076;8.660;2023-05-07T10:22:03;25.70;1.00
3778;DHT22;1904;50.076;8.660;2023-05-07T10:24:32;25.70;1.00
3778;DHT22;1904;50.076;8.660;2023-05-07T10:27:01;25.70;1.00
3778;DHT22;1904;50.076;8.660;2023-05-07T10:29:29;25.70;1.00
3778;DHT22;1904;50.076;8.660;2023-05-07T10:34:43;25.80;1.00
3778;DHT22;1904;50.076;8.660;2023-05-07T10:37:10;25.80;1.00
3778;DHT22;1904;50.076;8.660;2023-05-07T10:39:43;25.90;1.00
3778;DHT22;1904;50.076;8.660;2023-05-07T10:42:14;25.70;1.00
3778;DHT22;1904;50.076;8.660;2023-05-07T10:44:43;25.70;1.00
3778;DHT22;1904;50.076;8.660;2023-05-07T10:47:31;25.80;1.00
3778;DHT22;1904;50.076;8.660;2023-05-07T10:52:43;26.20;1.00
3778;DHT22;1904;50.076;8.660;2023-05-07T10:55:31;26.40;1.00
3778;DHT22;1904;50.076;8.660;2023-05-07T10:58:33;26.70;1.00
3778;DHT22;1904;50.076;8.660;2023-05-07T11:01:13;26.80;1.00
3778;DHT22;1904;50.076;8.660;2023-05-07T11:07:28;26.80;1.00
3778;DHT22;1904;50.076;8.660;2023-05-07T11:09:58;26.80;1.00
3778;DHT22;1904;50.076;8.660;2023-05-07T11:15:05;26.90;1.00
3778;DHT22;1904;50.076;8.660;2023-05-07T11:17:32;27.00;1.00
3778;DHT22;1904;50.076;8.660;2023-05-07T11:20:00;27.10;1.00
3778;DHT22;1904;50.076;8.660;2023-05-07T11:22:36;27.10;1.00
3778;DHT22;1904;50.076;8.660;2023-05-07T11:25:05;27.00;1.00
3778;DHT22;1904;50.076;8.660;2023-05-07T11:27:32;26.70;1.00
3778;DHT22;1904;50.076;8.660;2023-05-07T11:29:58;26.80;1.00
3778;DHT22;1904;50.076;8.660;2023-05-07T11:32:28;26.90;1.00
3778;DHT22;1904;50.076;8.660;2023-05-07T11:34:56;26.90;1.00
3778;DHT22;1904;50.076;8.660;2023-05-07T11:37:23;27.00;1.00
3778;DHT22;1904;50.076;8.660;2023-05-07T11:39:49;27.20;1.00
3778;DHT22;1904;50.076;8.660;2023-05-07T11:44:56;27.10;1.00
3778;DHT22;1904;50.076;8.660;2023-05-07T11:47:22;27.10;1.00
3778;DHT22;1904;50.076;8.660;2023-05-07T11:49:48;27.30;1.00
3778;DHT22;1904;50.076;8.660;2023-05-07T11:52:25;27.40;1.00
3778;DHT22;1904;50.076;8.660;2023-05-07T11:54:56;27.50;1.00
3778;DHT22;1904;50.076;8.660;2023-05-07T11:57:43;27.60;1.00
3778;DHT22;1904;50.076;8.660;2023-05-07T12:00:37;27.90;1.00
3778;DHT22;1904;50.076;8.660;2023-05-07T12:03:07;28.10;1.00
3778;DHT22;1904;50.076;8.660;2023-05-07T12:05:55;28.40;1.00
3778;DHT22;1904;50.076;8.660;2023-05-07T12:08:31;28.60;1.00
3778;DHT22;1904;50.076;8.660;2023-05-07T12:10:57;28.70;1.00
3778;DHT22;1904;50.076;8.660;2023-05-07T12:13:26;28.70;1.00
3778;DHT22;1904;50.076;8.660;2023-05-07T12:15:52;28.70;1.00
3778;DHT22;1904;50.076;8.660;2023-05-07T12:18:25;28.80;1.00
3778;DHT22;1904;50.076;8.660;2023-05-07T12:20:52;28.90;1.00
3778;DHT22;1904;50.076;8.660;2023-05-07T12:23:31;29.10;1.00
3778;DHT22;1904;50.076;8.660;2023-05-07T12:25:57;29.20;1.00
3778;DHT22;1904;50.076;8.660;2023-05-07T12:28:24;29.00;1.00
3778;DHT22;1904;50.076;8.660;2023-05-07T12:30:55;29.20;1.00
3778;DHT22;1904;50.076;8.660;2023-05-07T12:33:26;29.30;1.00
3778;DHT22;1904;50.076;8.660;2023-05-07T12:35:54;29.40;1.00
3778;DHT22;1904;50.076;8.660;2023-05-07T12:38:20;29.60;1.00
3778;DHT22;1904;50.076;8.660;2023-05-07T12:40:48;29.40;1.00
3778;DHT22;1904;50.076;8.660;2023-05-07T12:43:17;29.30;1.00
3778;DHT22;1904;50.076;8.660;2023-05-07T12:45:44;29.40;1.00
3778;DHT22;1904;50.076;8.660;2023-05-07T12:48:10;29.50;1.00
3778;DHT22;1904;50.076;8.660;2023-05-07T12:50:36;29.50;1.00
3778;DHT22;1904;50.076;8.660;2023-05-07T12:53:06;29.40;1.00
3778;DHT22;1904;50.076;8.660;2023-05-07T12:55:41;29.40;1.00
3778;DHT22;1904;50.076;8.660;2023-05-07T12:58:07;29.40;1.00
3778;DHT22;1904;50.076;8.660;2023-05-07T13:00:44;29.40;1.00
3778;DHT22;1904;50.076;8.660;2023-05-07T13:03:21;29.60;1.00
3778;DHT22;1904;50.076;8.660;2023-05-07T13:05:50;29.90;1.00
3778;DHT22;1904;50.076;8.660;2023-05-07T13:08:31;29.80;1.00
3778;DHT22;1904;50.076;8.660;2023-05-07T13:11:02;29.60;1.00
3778;DHT22;1904;50.076;8.660;2023-05-07T13:13:32;29.40;1.00
3778;DHT22;1904;50.076;8.660;2023-05-07T13:16:13;29.10;1.00
3778;DHT22;1904;50.076;8.660;2023-05-07T13:18:40;28.80;1.00
3778;DHT22;1904;50.076;8.660;2023-05-07T13:21:13;28.60;1.00
3778;DHT22;1904;50.076;8.660;2023-05-07T13:23:39;28.60;1.00
3778;DHT22;1904;50.076;8.660;2023-05-07T13:26:04;28.50;1.00
3778;DHT22;1904;50.076;8.660;2023-05-07T13:28:31;28.60;1.00
3778;DHT22;1904;50.076;8.660;2023-05-07T13:31:19;28.90;1.00
3778;DHT22;1904;50.076;8.660;2023-05-07T13:34:01;29.10;1.00
3778;DHT22;1904;50.076;8.660;2023-05-07T13:36:31;29.30;1.00
3778;DHT22;1904;50.076;8.660;2023-05-07T13:39:01;29.20;1.00
3778;DHT22;1904;50.076;8.660;2023-05-07T13:41:27;29.20;1.00
3778;DHT22;1904;50.076;8.660;2023-05-07T13:43:52;29.30;1.00
3778;DHT22;1904;50.076;8.660;2023-05-07T13:46:31;29.40;1.00
3778;DHT22;1904;50.076;8.660;2023-05-07T13:48:57;29.30;1.00
3778;DHT22;1904;50.076;8.660;2023-05-07T13:51:31;29.40;1.00
3778;DHT22;1904;50.076;8.660;2023-05-07T13:54:31;29.40;1.00
3778;DHT22;1904;50.076;8.660;2023-05-07T13:57:13;29.20;1.00
3778;DHT22;1904;50.076;8.660;2023-05-07T13:59:43;29.00;1.00
3778;DHT22;1904;50.076;8.660;2023-05-07T14:02:13;28.80;1.00
3778;DHT22;1904;50.076;8.660;2023-05-07T14:04:55;28.70;1.00
3778;DHT22;1904;50.076;8.660;2023-05-07T14:07:25;28.60;1.00
3778;DHT22;1904;50.076;8.660;2023-05-07T14:09:56;28.30;1.00
3778;DHT22;1904;50.076;8.660;2023-05-07T14:12:22;28.10;1.00
3778;DHT22;1904;50.076;8.660;2023-05-07T14:14:47;27.90;1.00
3778;DHT22;1904;50.076;8.660;2023-05-07T14:17:16;27.80;1.00
3778;DHT22;1904;50.076;8.660;2023-05-07T14:19:44;27.70;1.00
3778;DHT22;1904;50.076;8.660;2023-05-07T14:22:13;27.60;1.00
3778;DHT22;1904;50.076;8.660;2023-05-07T14:24:40;27.60;1.00
3778;DHT22;1904;50.076;8.660;2023-05-07T14:27:06;27.50;1.00
3778;DHT22;1904;50.076;8.660;2023-05-07T14:29:32;27.50;1.00
3778;DHT22;1904;50.076;8.660;2023-05-07T14:31:58;27.40;1.00
3778;DHT22;1904;50.076;8.660;2023-05-07T14:34:23;27.40;1.00
3778;DHT22;1904;50.076;8.660;2023-05-07T14:36:49;27.50;1.00
3778;DHT22;1904;50.076;8.660;2023-05-07T14:39:15;27.50;1.00
3778;DHT22;1904;50.076;8.660;2023-05-07T14:41:40;27.50;1.00
3778;DHT22;1904;50.076;8.660;2023-05-07T14:44:06;27.50;1.00
3778;DHT22;1904;50.076;8.660;2023-05-07T14:46:32;27.60;1.00
3778;DHT22;1904;50.076;8.660;2023-05-07T14:48:58;27.60;1.00
3778;DHT22;1904;50.076;8.660;2023-05-07T14:51:23;27.70;1.00
3778;DHT22;1904;50.076;8.660;2023-05-07T14:53:50;27.70;1.00
3778;DHT22;1904;50.076;8.660;2023-05-07T14:56:25;27.70;1.00
3778;DHT22;1904;50.076;8.660;2023-05-07T14:58:55;27.70;1.00
3778;DHT22;1904;50.076;8.660;2023-05-07T15:01:37;27.50;1.00
3778;DHT22;1904;50.076;8.660;2023-05-07T15:04:04;27.40;1.00
3778;DHT22;1904;50.076;8.660;2023-05-07T15:07:01;27.20;1.00
3778;DHT22;1904;50.076;8.660;2023-05-07T15:09:37;27.10;1.00
3778;DHT22;1904;50.076;8.660;2023-05-07T15:12:03;27.00;1.00
3778;DHT22;1904;50.076;8.660;2023-05-07T15:14:29;26.80;1.00
3778;DHT22;1904;50.076;8.660;2023-05-07T15:16:55;26.60;1.00
3778;DHT22;1904;50.076;8.660;2023-05-07T15:19:20;26.40;1.00
3778;DHT22;1904;50.076;8.660;2023-05-07T15:21:47;26.20;1.00
3778;DHT22;1904;50.076;8.660;2023-05-07T15:24:19;25.90;1.00
3778;DHT22;1904;50.076;8.660;2023-05-07T15:26:51;25.60;1.00
3778;DHT22;1904;50.076;8.660;2023-05-07T15:29:17;25.60;1.00
3778;DHT22;1904;50.076;8.660;2023-05-07T15:31:43;25.50;1.00
3778;DHT22;1904;50.076;8.660;2023-05-07T15:34:20;25.40;1.00
3778;DHT22;1904;50.076;8.660;2023-05-07T15:36:55;25.30;1.00
3778;DHT22;1904;50.076;8.660;2023-05-07T15:39:22;25.10;1.00
3778;DHT22;1904;50.076;8.660;2023-05-07T15:41:48;25.00;1.00
3778;DHT22;1904;50.076;8.660;2023-05-07T15:44:14;24.80;1.00
3778;DHT22;1904;50.076;8.660;2023-05-07T15:46:39;24.70;1.00
3778;DHT22;1904;50.076;8.660;2023-05-07T15:49:05;24.50;1.00
3778;DHT22;1904;50.076;8.660;2023-05-07T15:51:33;24.40;1.00
3778;DHT22;1904;50.076;8.660;2023-05-07T15:53:59;24.30;1.00
3778;DHT22;1904;50.076;8.660;2023-05-07T15:56:25;24.20;1.00
3778;DHT22;1904;50.076;8.660;2023-05-07T15:58:50;24.00;1.00
3778;DHT22;1904;50.076;8.660;2023-05-07T16:01:17;24.00;1.00
3778;DHT22;1904;50.076;8.660;2023-05-07T16:03:43;23.90;1.00
3778;DHT22;1904;50.076;8.660;2023-05-07T16:06:09;23.90;1.00
3778;DHT22;1904;50.076;8.660;2023-05-07T16:08:37;23.80;1.00
3778;DHT22;1904;50.076;8.660;2023-05-07T16:11:04;23.80;1.00
3778;DHT22;1904;50.076;8.660;2023-05-07T16:13:43;23.70;1.00
3778;DHT22;1904;50.076;8.660;2023-05-07T16:16:19;23.80;1.00
3778;DHT22;1904;50.076;8.660;2023-05-07T16:18:55;23.70;1.00
3778;DHT22;1904;50.076;8.660;2023-05-07T16:21:31;23.60;1.00
3778;DHT22;1904;50.076;8.660;2023-05-07T16:24:31;23.60;1.00
3778;DHT22;1904;50.076;8.660;2023-05-07T16:30:25;23.60;1.00
3778;DHT22;1904;50.076;8.660;2023-05-07T16:33:03;23.50;1.00
3778;DHT22;1904;50.076;8.660;2023-05-07T16:35:31;23.50;1.00
3778;DHT22;1904;50.076;8.660;2023-05-07T16:38:01;23.50;1.00
3778;DHT22;1904;50.076;8.660;2023-05-07T16:47:32;23.30;1.00
3778;DHT22;1904;50.076;8.660;2023-05-07T16:49:58;23.20;1.00
3778;DHT22;1904;50.076;8.660;2023-05-07T16:52:26;23.10;1.00
3778;DHT22;1904;50.076;8.660;2023-05-07T17:08:01;21.30;1.00
3778;DHT22;1904;50.076;8.660;2023-05-07T17:10:27;21.10;1.00
3778;DHT22;1904;50.076;8.660;2023-05-07T17:13:19;20.70;1.00
3778;DHT22;1904;50.076;8.660;2023-05-07T17:15:45;20.50;1.00
3778;DHT22;1904;50.076;8.660;2023-05-07T17:18:12;20.10;1.00
3778;DHT22;1904;50.076;8.660;2023-05-07T17:20:43;19.90;1.00
3778;DHT22;1904;50.076;8.660;2023-05-07T17:23:13;19.80;1.00
3778;DHT22;1904;50.076;8.660;2023-05-07T17:25:55;19.70;1.00
3778;DHT22;1904;50.076;8.660;2023-05-07T17:28:25;19.30;1.00
3778;DHT22;1904;50.076;8.660;2023-05-07T17:31:01;19.20;1.00
3778;DHT22;1904;50.076;8.660;2023-05-07T17:33:31;18.90;1.00
3778;DHT22;1904;50.076;8.660;2023-05-07T17:39:02;18.60;1.00
3778;DHT22;1904;50.076;8.660;2023-05-07T17:44:02;18.30;1.00
3778;DHT22;1904;50.076;8.660;2023-05-07T17:47:01;18.00;1.00
3778;DHT22;1904;50.076;8.660;2023-05-07T17:49:28;17.90;1.00
3778;DHT22;1904;50.076;8.660;2023-05-07T17:52:01;17.80;1.00
3778;DHT22;1904;50.076;8.660;2023-05-07T17:54:31;17.80;1.00
3778;DHT22;1904;50.076;8.660;2023-05-07T17:57:31;17.60;1.00
3778;DHT22;1904;50.076;8.660;2023-05-07T18:00:02;17.60;1.00
3778;DHT22;1904;50.076;8.660;2023-05-07T18:06:01;17.40;1.00
3778;DHT22;1904;50.076;8.660;2023-05-07T18:08:33;17.40;1.00
3778;DHT22;1904;50.076;8.660;2023-05-07T18:10:58;17.30;1.00
3778;DHT22;1904;50.076;8.660;2023-05-07T18:13:24;17.30;1.00
3778;DHT22;1904;50.076;8.660;2023-05-07T18:15:50;17.40;1.00
3778;DHT22;1904;50.076;8.660;2023-05-07T18:18:19;17.40;1.00
3778;DHT22;1904;50.076;8.660;2023-05-07T18:20:51;17.30;1.00
3778;DHT22;1904;50.076;8.660;2023-05-07T18:26:31;17.30;1.00
3778;DHT22;1904;50.076;8.660;2023-05-07T18:29:01;17.30;1.00
3778;DHT22;1904;50.076;8.660;2023-05-07T18:31:31;17.30;1.00
3778;DHT22;1904;50.076;8.660;2023-05-07T18:34:31;17.20;1.00
3778;DHT22;1904;50.076;8.660;2023-05-07T18:37:01;17.10;1.00
3778;DHT22;1904;50.076;8.660;2023-05-07T18:39:31;17.10;1.00
3778;DHT22;1904;50.076;8.660;2023-05-07T18:42:01;17.10;1.00
3778;DHT22;1904;50.076;8.660;2023-05-07T18:44:31;17.10;1.00
3778;DHT22;1904;50.076;8.660;2023-05-07T18:47:31;17.10;1.00
3778;DHT22;1904;50.076;8.660;2023-05-07T18:49:56;17.10;1.00
3778;DHT22;1904;50.076;8.660;2023-05-07T18:52:22;17.10;1.00
3778;DHT22;1904;50.076;8.660;2023-05-07T18:55:01;17.10;1.00
3778;DHT22;1904;50.076;8.660;2023-05-07T18:58:01;17.10;1.00
3778;DHT22;1904;50.076;8.660;2023-05-07T19:00:31;17.00;1.00
3778;DHT22;1904;50.076;8.660;2023-05-07T19:03:14;17.10;1.00
3778;DHT22;1904;50.076;8.660;2023-05-07T19:06:01;17.10;1.00
3778;DHT22;1904;50.076;8.660;2023-05-07T19:08:31;17.10;1.00
3778;DHT22;1904;50.076;8.660;2023-05-07T19:11:02;17.10;1.00
3778;DHT22;1904;50.076;8.660;2023-05-07T19:13:49;17.00;1.00
3778;DHT22;1904;50.076;8.660;2023-05-07T19:16:43;17.00;1.00
3778;DHT22;1904;50.076;8.660;2023-05-07T19:22:31;17.00;1.00
3778;DHT22;1904;50.076;8.660;2023-05-07T19:25:01;17.00;1.00
3778;DHT22;1904;50.076;8.660;2023-05-07T19:27:27;17.00;1.00
3778;DHT22;1904;50.076;8.660;2023-05-07T19:29:53;17.00;1.00
3778;DHT22;1904;50.076;8.660;2023-05-07T19:32:31;17.10;1.00
3778;DHT22;1904;50.076;8.660;2023-05-07T19:35:19;17.10;1.00
3778;DHT22;1904;50.076;8.660;2023-05-07T19:37:49;17.10;1.00
3778;DHT22;1904;50.076;8.660;2023-05-07T19:40:25;17.10;1.00
3778;DHT22;1904;50.076;8.660;2023-05-07T19:43:01;17.10;1.00
3778;DHT22;1904;50.076;8.660;2023-05-07T19:45:31;17.10;1.00
3778;DHT22;1904;50.076;8.660;2023-05-07T19:48:01;17.20;1.00
3778;DHT22;1904;50.076;8.660;2023-05-07T19:50:27;17.20;1.00
3778;DHT22;1904;50.076;8.660;2023-05-07T19:53:02;17.20;1.00
3778;DHT22;1904;50.076;8.660;2023-05-07T19:55:31;17.20;1.00
3778;DHT22;1904;50.076;8.660;2023-05-07T19:58:01;17.20;1.00
3778;DHT22;1904;50.076;8.660;2023-05-07T20:00:27;17.20;1.00
3778;DHT22;1904;50.076;8.660;2023-05-07T20:02:56;17.30;1.00
3778;DHT22;1904;50.076;8.660;2023-05-07T20:05:22;17.30;1.00
3778;DHT22;1904;50.076;8.660;2023-05-07T20:07:50;17.30;1.00
3778;DHT22;1904;50.076;8.660;2023-05-07T20:10:16;17.30;1.00
3778;DHT22;1904;50.076;8.660;2023-05-07T20:12:41;17.30;1.00
3778;DHT22;1904;50.076;8.660;2023-05-07T20:15:08;17.30;1.00
3778;DHT22;1904;50.076;8.660;2023-05-07T20:17:33;17.30;1.00
3778;DHT22;1904;50.076;8.660;2023-05-07T20:19:59;17.30;1.00
3778;DHT22;1904;50.076;8.660;2023-05-07T20:22:29;17.30;1.00
3778;DHT22;1904;50.076;8.660;2023-05-07T20:24:54;17.30;1.00
3778;DHT22;1904;50.076;8.660;2023-05-07T20:27:20;17.30;1.00
3778;DHT22;1904;50.076;8.660;2023-05-07T20:29:50;17.30;1.00
3778;DHT22;1904;50.076;8.660;2023-05-07T20:32:16;17.30;1.00
3778;DHT22;1904;50.076;8.660;2023-05-07T20:34:44;17.30;1.00
3778;DHT22;1904;50.076;8.660;2023-05-07T20:37:10;17.30;1.00
3778;DHT22;1904;50.076;8.660;2023-05-07T20:39:41;17.30;1.00
3778;DHT22;1904;50.076;8.660;2023-05-07T20:42:07;17.30;1.00
3778;DHT22;1904;50.076;8.660;2023-05-07T20:44:33;17.30;1.00
3778;DHT22;1904;50.076;8.660;2023-05-07T20:47:00;17.30;1.00
3778;DHT22;1904;50.076;8.660;2023-05-07T20:49:25;17.30;1.00
3778;DHT22;1904;50.076;8.660;2023-05-07T20:51:51;17.20;1.00
3778;DHT22;1904;50.076;8.660;2023-05-07T20:54:17;17.20;1.00
3778;DHT22;1904;50.076;8.660;2023-05-07T20:56:43;17.20;1.00
3778;DHT22;1904;50.076;8.660;2023-05-07T20:59:09;17.20;1.00
3778;DHT22;1904;50.076;8.660;2023-05-07T21:01:43;17.10;1.00
3778;DHT22;1904;50.076;8.660;2023-05-07T21:04:13;17.10;1.00
3778;DHT22;1904;50.076;8.660;2023-05-07T21:06:39;17.10;1.00
3778;DHT22;1904;50.076;8.660;2023-05-07T21:09:19;17.00;1.00
3778;DHT22;1904;50.076;8.660;2023-05-07T21:12:01;17.00;1.00